Time;durP1;ratioP1;P1;durP2;ratioP2;P2;SDS_P1;SDS_P2;PMS_P1;PMS_P2;Temp;Humidity;BMP_temperature;BMP_pressure;BME280_temperature;BME280_humidity;BME280_pressure;Samples;Min_cycle;Max_cycle;Signal;HPM_P1;HPM_P2
2023/04/01 00:01:05;;;;;;;1999.90;999.90;;;11.60;99.90;;;;;;5053434;28;20025;-74
2023/04/01 00:03:31;;;;;;;1999.90;999.90;;;11.60;99.90;;;;;;5053154;28;20499;-74
2023/04/01 00:05:58;;;;;;;1999.90;999.90;;;11.60;99.90;;;;;;5053359;28;20021;-74
2023/04/01 00:08:26;;;;;;;1999.90;999.90;;;11.60;99.90;;;;;;5053090;28;20503;-75
2023/04/01 00:10:52;;;;;;;1999.90;999.90;;;11.60;99.90;;;;;;5053298;28;20021;-75
2023/04/01 00:13:18;;;;;;;1999.90;999.90;;;11.60;99.90;;;;;;5053087;28;20033;-74
2023/04/01 00:15:44;;;;;;;1999.90;999.90;;;11.60;99.90;;;;;;5053126;28;20020;-74
2023/04/01 00:18:10;;;;;;;1999.90;999.90;;;11.60;99.90;;;;;;5053019;28;20032;-68
2023/04/01 00:20:36;;;;;;;1999.90;999.90;;;11.70;99.90;;;;;;5047978;28;20025;-75
2023/04/01 00:23:03;;;;;;;1999.90;999.90;;;11.70;99.90;;;;;;5052899;28;20104;-75
2023/04/01 00:25:29;;;;;;;1999.90;999.90;;;11.60;99.90;;;;;;5052542;28;20017;-69
2023/04/01 00:27:54;;;;;;;1999.90;999.90;;;11.60;99.90;;;;;;5052791;28;20029;-68
2023/04/01 00:30:20;;;;;;;1999.90;999.90;;;11.60;99.90;;;;;;5053028;28;20021;-74
2023/04/01 00:32:46;;;;;;;1999.90;999.90;;;11.60;99.90;;;;;;5052846;28;20021;-74
2023/04/01 00:35:12;;;;;;;1999.90;999.90;;;11.70;99.90;;;;;;5053213;28;20106;-74
2023/04/01 00:37:39;;;;;;;1999.90;999.90;;;11.60;99.90;;;;;;5051636;28;20103;-68
2023/04/01 00:40:21;;;;;;;1999.90;999.90;;;11.50;99.90;;;;;;5052900;28;20029;-74
2023/04/01 00:42:47;;;;;;;1999.90;999.90;;;11.50;99.90;;;;;;5052837;28;20475;-75
2023/04/01 00:45:39;;;;;;;1999.90;999.90;;;11.50;99.90;;;;;;5052208;28;20032;-74
2023/04/01 00:48:09;;;;;;;1999.90;999.90;;;11.50;99.90;;;;;;5032839;28;20037;-74
2023/04/01 00:50:38;;;;;;;1999.90;999.90;;;11.50;99.90;;;;;;5032589;28;20033;-74
2023/04/01 00:53:06;;;;;;;1999.90;999.90;;;11.50;99.90;;;;;;5032793;28;20022;-68
2023/04/01 00:55:35;;;;;;;1999.90;999.90;;;11.50;99.90;;;;;;5032528;28;20049;-74
2023/04/01 00:58:03;;;;;;;1999.90;999.90;;;11.50;99.90;;;;;;5032679;28;20048;-74
2023/04/01 01:00:29;;;;;;;1999.90;999.90;;;11.40;99.90;;;;;;5033079;28;20022;-74
2023/04/01 01:02:54;;;;;;;1999.90;999.90;;;11.40;99.90;;;;;;5045782;28;20037;-74
2023/04/01 01:05:29;;;;;;;1999.90;999.90;;;11.50;99.90;;;;;;5052799;28;20021;-74
2023/04/01 01:08:06;;;;;;;1999.90;999.90;;;11.50;99.90;;;;;;5052453;28;20100;-74
2023/04/01 01:10:34;;;;;;;1999.90;999.90;;;11.50;99.90;;;;;;5052529;28;20127;-74
2023/04/01 01:13:09;;;;;;;1999.90;999.90;;;11.50;99.90;;;;;;5052395;28;20028;-74
2023/04/01 01:15:34;;;;;;;1999.90;999.90;;;11.60;99.90;;;;;;5051078;28;20029;-74
2023/04/01 01:18:06;;;;;;;1999.90;999.90;;;11.50;99.90;;;;;;5050463;28;20029;-73
2023/04/01 01:20:56;;;;;;;1999.90;999.90;;;11.50;99.90;;;;;;5049280;28;20516;-74
2023/04/01 01:23:46;;;;;;;1999.90;999.90;;;11.60;99.90;;;;;;5052189;28;20021;-74
2023/04/01 01:26:33;;;;;;;1999.90;999.90;;;11.60;99.90;;;;;;5052222;28;20369;-74
2023/04/01 01:29:20;;;;;;;1999.90;999.90;;;11.70;99.90;;;;;;5052416;28;20040;-74
2023/04/01 01:32:12;;;;;;;1999.90;999.90;;;11.70;99.90;;;;;;5052457;28;20103;-72
2023/04/01 01:35:02;;;;;;;1999.90;999.90;;;11.80;99.90;;;;;;5052542;28;20107;-74
2023/04/01 01:37:29;;;;;;;1999.90;999.90;;;11.80;99.90;;;;;;5052998;28;20055;-74
2023/04/01 01:40:05;;;;;;;1999.90;999.90;;;11.70;99.90;;;;;;5055566;28;20041;-74
2023/04/01 01:42:35;;;;;;;1999.90;999.90;;;11.70;99.90;;;;;;5055798;28;20031;-74
2023/04/01 01:45:02;;;;;;;1999.90;999.90;;;11.70;99.90;;;;;;5055362;28;20039;-74
2023/04/01 01:47:29;;;;;;;1999.90;999.90;;;11.70;99.90;;;;;;5056288;28;20087;-74
2023/04/01 01:49:55;;;;;;;1999.90;999.90;;;11.70;99.90;;;;;;5055596;28;20085;-74
2023/04/01 01:52:26;;;;;;;1999.90;999.90;;;11.70;99.90;;;;;;5055716;28;20029;-74
2023/04/01 01:54:54;;;;;;;1999.90;999.90;;;11.80;99.90;;;;;;5055374;28;20040;-75
2023/04/01 01:57:25;;;;;;;1999.90;999.90;;;11.80;99.90;;;;;;5055310;28;20427;-68
2023/04/01 01:59:55;;;;;;;1999.90;999.90;;;11.80;99.90;;;;;;5055415;28;20021;-74
2023/04/01 02:02:23;;;;;;;1999.90;999.90;;;11.80;99.90;;;;;;5055528;28;20017;-74
2023/04/01 02:04:50;;;;;;;1999.90;999.90;;;11.80;99.90;;;;;;5055545;28;20017;-75
2023/04/01 02:07:24;;;;;;;1999.90;999.90;;;11.70;99.90;;;;;;5055466;28;20009;-68
2023/04/01 02:09:51;;;;;;;1999.90;999.90;;;11.70;99.90;;;;;;5055345;28;20518;-74
2023/04/01 02:12:19;;;;;;;1999.90;999.90;;;11.70;99.90;;;;;;5055741;28;20590;-68
2023/04/01 02:15:11;;;;;;;1999.90;999.90;;;11.70;99.90;;;;;;5055402;28;20056;-74
2023/04/01 02:17:42;;;;;;;1999.90;999.90;;;11.70;99.90;;;;;;5055070;28;20610;-74
2023/04/01 02:20:21;;;;;;;1999.90;999.90;;;11.70;99.90;;;;;;5048714;28;20503;-74
2023/04/01 02:22:51;;;;;;;1999.90;999.90;;;11.70;99.90;;;;;;5055121;28;20017;-75
2023/04/01 02:25:23;;;;;;;1999.90;999.90;;;11.60;99.90;;;;;;5055271;28;20036;-71
2023/04/01 02:27:49;;;;;;;1999.90;999.90;;;11.40;99.90;;;;;;5055156;28;20021;-75
2023/04/01 02:30:16;;;;;;;1999.90;999.90;;;11.30;99.90;;;;;;5055144;28;20029;-71
2023/04/01 02:32:42;;;;;;;1999.90;999.90;;;11.20;99.90;;;;;;5054738;28;20078;-74
2023/04/01 02:35:11;;;;;;;1999.90;999.90;;;11.10;99.90;;;;;;5055046;28;20032;-75
2023/04/01 02:37:38;;;;;;;1999.90;999.90;;;11.00;99.90;;;;;;5055177;28;20440;-74
2023/04/01 02:40:07;;;;;;;1999.90;999.90;;;10.90;99.90;;;;;;5054664;28;20119;-75
2023/04/01 02:42:33;;;;;;;1999.90;999.90;;;11.00;99.90;;;;;;5054627;28;20064;-75
2023/04/01 02:44:58;;;;;;;1999.90;999.90;;;11.00;99.90;;;;;;5054058;28;20044;-74
2023/04/01 02:47:24;;;;;;;1999.90;999.90;;;11.00;99.90;;;;;;5055168;28;20112;-75
2023/04/01 02:49:50;;;;;;;1999.90;999.90;;;11.10;99.90;;;;;;5054173;28;20057;-74
2023/04/01 02:52:15;;;;;;;1999.90;999.90;;;11.10;99.90;;;;;;5054730;28;20083;-74
2023/04/01 02:54:41;;;;;;;1999.90;999.90;;;11.10;99.90;;;;;;5054603;28;20040;-74
2023/04/01 02:57:07;;;;;;;1999.90;999.90;;;11.20;99.90;;;;;;5054490;28;20021;-74
2023/04/01 02:59:32;;;;;;;1999.90;999.90;;;11.20;99.90;;;;;;5054601;28;20055;-74
2023/04/01 03:01:58;;;;;;;1999.90;999.90;;;11.30;99.90;;;;;;5054333;28;20045;-74
2023/04/01 03:04:24;;;;;;;1999.90;999.90;;;11.20;99.90;;;;;;5054430;28;20029;-69
2023/04/01 03:06:49;;;;;;;1999.90;999.90;;;11.30;99.90;;;;;;5054324;28;20106;-74
2023/04/01 03:09:15;;;;;;;1999.90;999.90;;;11.30;99.90;;;;;;5054293;28;20078;-75
2023/04/01 03:11:41;;;;;;;1999.90;999.90;;;11.30;99.90;;;;;;5054353;28;20100;-74
2023/04/01 03:14:07;;;;;;;1999.90;999.90;;;11.30;99.90;;;;;;5054420;28;20538;-74
2023/04/01 03:16:32;;;;;;;1999.90;999.90;;;11.40;99.90;;;;;;5054211;28;20040;-74
2023/04/01 03:18:59;;;;;;;1999.90;999.90;;;11.40;99.90;;;;;;5049309;28;20025;-74
2023/04/01 03:21:25;;;;;;;1999.90;999.90;;;11.40;99.90;;;;;;5053934;28;20090;-69
2023/04/01 03:23:51;;;;;;;1999.90;999.90;;;11.40;99.90;;;;;;5054149;28;20031;-74
2023/04/01 03:26:18;;;;;;;1999.90;999.90;;;11.50;99.90;;;;;;5054118;28;20108;-74
2023/04/01 03:28:44;;;;;;;1999.90;999.90;;;11.50;99.90;;;;;;5054215;28;20395;-74
2023/04/01 03:31:10;;;;;;;1999.90;999.90;;;11.40;99.90;;;;;;5053761;28;20032;-74
2023/04/01 03:33:36;;;;;;;1999.90;999.90;;;11.40;99.90;;;;;;5054106;28;20132;-74
2023/04/01 03:36:06;;;;;;;1999.90;999.90;;;11.40;99.90;;;;;;5053800;28;20029;-75
2023/04/01 03:38:32;;;;;;;1999.90;999.90;;;11.40;99.90;;;;;;5053876;28;20027;-74
2023/04/01 03:40:58;;;;;;;1999.90;999.90;;;11.40;99.90;;;;;;5053635;28;20484;-74
2023/04/01 03:43:25;;;;;;;1999.90;999.90;;;11.50;99.90;;;;;;5053618;28;20066;-74
2023/04/01 03:45:51;;;;;;;1999.90;999.90;;;11.50;99.90;;;;;;5053047;28;20016;-69
2023/04/01 03:48:17;;;;;;;1999.90;999.90;;;11.50;99.90;;;;;;5053387;28;20088;-75
2023/04/01 03:50:44;;;;;;;1999.90;999.90;;;11.50;99.90;;;;;;5053437;28;20021;-74
2023/04/01 03:53:09;;;;;;;1999.90;999.90;;;11.50;99.90;;;;;;5053787;28;20033;-75
2023/04/01 03:55:36;;;;;;;1999.90;999.90;;;11.40;99.90;;;;;;5053376;28;20021;-70
2023/04/01 03:58:03;;;;;;;1999.90;999.90;;;11.50;99.90;;;;;;5053476;28;20406;-74
2023/04/01 04:00:30;;;;;;;1999.90;999.90;;;11.50;99.90;;;;;;5052895;28;20021;-75
2023/04/01 04:02:56;;;;;;;1999.90;999.90;;;11.50;99.90;;;;;;5053195;28;20078;-75
2023/04/01 04:05:22;;;;;;;1999.90;999.90;;;11.50;99.90;;;;;;5053290;28;20028;-69
2023/04/01 04:07:48;;;;;;;1999.90;999.90;;;11.50;99.90;;;;;;5053073;28;20032;-74
2023/04/01 04:10:14;;;;;;;1999.90;999.90;;;11.40;99.90;;;;;;5053314;28;20033;-75
2023/04/01 04:12:40;;;;;;;1999.90;999.90;;;11.40;99.90;;;;;;5052865;28;20044;-74
2023/04/01 04:15:06;;;;;;;1999.90;999.90;;;11.40;99.90;;;;;;5053040;28;20039;-74
2023/04/01 04:17:32;;;;;;;1999.90;999.90;;;11.30;99.90;;;;;;5052714;28;20025;-68
2023/04/01 04:19:58;;;;;;;1999.90;999.90;;;11.20;99.90;;;;;;5046885;28;20104;-74
2023/04/01 04:22:23;;;;;;;1999.90;999.90;;;11.20;99.90;;;;;;5053057;28;20025;-69
2023/04/01 04:24:49;;;;;;;1999.90;999.90;;;11.20;99.90;;;;;;5052978;28;20068;-74
2023/04/01 04:27:15;;;;;;;1999.90;999.90;;;11.20;99.90;;;;;;5052888;28;20024;-74
2023/04/01 04:29:40;;;;;;;1999.90;999.90;;;11.10;99.90;;;;;;5053238;28;20029;-74
2023/04/01 04:32:06;;;;;;;1999.90;999.90;;;11.10;99.90;;;;;;5052701;28;20029;-74
2023/04/01 04:34:32;;;;;;;1999.90;999.90;;;11.10;99.90;;;;;;5053134;28;20040;-74
2023/04/01 04:36:58;;;;;;;1999.90;999.90;;;11.10;99.90;;;;;;5052847;28;20036;-74
2023/04/01 04:39:23;;;;;;;1999.90;999.90;;;11.00;99.90;;;;;;5052525;28;20033;-74
2023/04/01 04:41:49;;;;;;;1999.90;999.90;;;11.00;99.90;;;;;;5052531;28;20047;-74
2023/04/01 04:44:14;;;;;;;1999.90;999.90;;;11.10;99.90;;;;;;5052959;28;20094;-69
2023/04/01 04:46:40;;;;;;;1999.90;999.90;;;11.10;99.90;;;;;;5052038;28;20482;-68
2023/04/01 04:49:06;;;;;;;1999.90;999.90;;;11.20;99.90;;;;;;5052593;28;20056;-68
2023/04/01 04:51:35;;;;;;;1999.90;999.90;;;11.20;99.90;;;;;;5052659;28;20407;-74
2023/04/01 04:54:02;;;;;;;1999.90;999.90;;;11.30;99.90;;;;;;5052595;28;20025;-74
2023/04/01 04:56:27;;;;;;;1999.90;999.90;;;11.30;99.90;;;;;;5051226;28;20112;-75
2023/04/01 04:58:53;;;;;;;1999.90;999.90;;;11.20;99.90;;;;;;5052453;28;20109;-74
2023/04/01 05:01:19;;;;;;;1999.90;999.90;;;11.20;99.90;;;;;;5052700;28;20480;-69
2023/04/01 05:03:45;;;;;;;1999.90;999.90;;;11.20;99.90;;;;;;5052502;28;20032;-74
2023/04/01 05:06:13;;;;;;;1999.90;999.90;;;11.20;99.90;;;;;;5052550;28;20029;-74
2023/04/01 05:08:40;;;;;;;1999.90;999.90;;;11.30;99.90;;;;;;5052581;28;20119;-74
2023/04/01 05:11:12;;;;;;;1999.90;999.90;;;11.30;99.90;;;;;;5052437;28;20472;-74
2023/04/01 05:13:37;;;;;;;1999.90;999.90;;;11.40;99.90;;;;;;5055679;28;20021;-74
2023/04/01 05:16:03;;;;;;;1999.90;999.90;;;11.30;99.90;;;;;;5056331;28;20033;-74
2023/04/01 05:18:29;;;;;;;1999.90;999.90;;;11.20;99.90;;;;;;5050861;28;20028;-75
2023/04/01 05:20:55;;;;;;;1999.90;999.90;;;11.10;99.90;;;;;;5056565;28;20036;-73
2023/04/01 05:23:21;;;;;;;1999.90;999.90;;;10.90;99.90;;;;;;5056070;28;20021;-68
2023/04/01 05:25:48;;;;;;;1999.90;999.90;;;10.70;99.90;;;;;;5056546;28;20395;-74
2023/04/01 05:28:17;;;;;;;1999.90;999.90;;;10.70;99.90;;;;;;5056187;28;20020;-74
2023/04/01 05:30:44;;;;;;;1999.90;999.90;;;10.70;99.90;;;;;;5056357;28;20024;-74
2023/04/01 05:33:11;;;;;;;1999.90;999.90;;;10.60;99.90;;;;;;5056193;28;20021;-74
2023/04/01 05:35:37;;;;;;;1999.90;999.90;;;10.60;99.90;;;;;;5051417;28;20029;-73
2023/04/01 05:38:03;;;;;;;1999.90;999.90;;;10.60;99.90;;;;;;5035917;28;20031;-74
2023/04/01 05:40:30;;;;;;;1999.90;999.90;;;10.60;99.90;;;;;;5036328;28;20388;-68
2023/04/01 05:42:56;;;;;;;1999.90;999.90;;;10.60;99.90;;;;;;5051306;28;20056;-74
2023/04/01 05:45:22;;;;;;;1999.90;999.90;;;10.50;99.90;;;;;;5056057;28;20049;-68
2023/04/01 05:47:47;;;;;;;1999.90;999.90;;;10.50;99.90;;;;;;5055300;28;20428;-73
2023/04/01 05:50:13;;;;;;;1999.90;999.90;;;10.40;99.90;;;;;;5055986;28;20025;-74
2023/04/01 05:52:39;;;;;;;1999.90;999.90;;;10.30;99.90;;;;;;5055936;28;20507;-73
2023/04/01 05:55:05;;;;;;;1999.90;999.90;;;10.30;99.90;;;;;;5055873;28;20504;-74
2023/04/01 05:57:31;;;;;;;1999.90;999.90;;;10.40;99.90;;;;;;5055648;28;20124;-73
2023/04/01 05:59:56;;;;;;;1999.90;999.90;;;10.30;99.90;;;;;;5055657;28;20025;-74
2023/04/01 06:02:23;;;;;;;1999.90;999.90;;;10.30;99.90;;;;;;5055566;28;20040;-68
2023/04/01 06:04:48;;;;;;;1999.90;999.90;;;10.30;99.90;;;;;;5055644;28;20013;-68
2023/04/01 06:07:16;;;;;;;1999.90;999.90;;;10.30;99.90;;;;;;5055505;28;20017;-73
2023/04/01 06:09:44;;;;;;;1999.90;999.90;;;10.30;99.90;;;;;;5055469;28;20029;-73
2023/04/01 06:12:23;;;;;;;1999.90;999.90;;;10.30;99.90;;;;;;5055506;28;20033;-74
2023/04/01 06:15:17;;;;;;;1999.90;999.90;;;10.30;99.90;;;;;;5055588;28;20154;-73
2023/04/01 06:18:02;;;;;;;1999.90;999.90;;;10.30;99.90;;;;;;5055350;28;20033;-68
2023/04/01 06:21:00;;;;;;;1999.90;999.90;;;10.40;99.90;;;;;;5046181;28;20052;-75
2023/04/01 06:23:58;;;;;;;1999.90;999.90;;;10.50;99.90;;;;;;5033696;28;20072;-74
2023/04/01 06:26:56;;;;;;;1999.90;999.90;;;10.60;99.90;;;;;;5035580;28;20021;-73
2023/04/01 06:29:31;;;;;;;1999.90;999.90;;;10.50;99.90;;;;;;5035147;28;20421;-69
2023/04/01 06:32:00;;;;;;;1999.90;999.90;;;10.40;99.90;;;;;;5035241;28;20418;-75
2023/04/01 06:34:49;;;;;;;1999.90;999.90;;;10.30;99.90;;;;;;5035261;28;20037;-75
2023/04/01 06:37:24;;;;;;;1999.90;999.90;;;10.20;99.90;;;;;;5035093;28;20033;-75
2023/04/01 06:40:03;;;;;;;1999.90;999.90;;;10.20;99.90;;;;;;5034826;28;20032;-74
2023/04/01 06:43:00;;;;;;;1999.90;999.90;;;10.20;99.90;;;;;;5046468;28;20369;-69
2023/04/01 06:45:35;;;;;;;1999.90;999.90;;;10.30;99.90;;;;;;5050196;28;20104;-74
2023/04/01 06:48:10;;;;;;;1999.90;999.90;;;10.20;99.90;;;;;;5034133;28;20092;-74
2023/04/01 06:50:42;;;;;;;1999.90;999.90;;;10.30;99.90;;;;;;5034945;28;20021;-75
2023/04/01 06:53:43;;;;;;;1999.90;999.90;;;10.30;99.90;;;;;;5034778;28;20545;-75
2023/04/01 06:56:14;;;;;;;1999.90;999.90;;;10.30;99.90;;;;;;5040521;28;20116;-69
2023/04/01 06:59:02;;;;;;;1999.90;999.90;;;10.30;99.90;;;;;;5034439;28;20030;-69
2023/04/01 07:01:44;;;;;;;1999.90;999.90;;;10.40;99.90;;;;;;5036005;28;20025;-73
2023/04/01 07:04:32;;;;;;;1999.90;999.90;;;10.40;99.90;;;;;;5054550;28;20036;-74
2023/04/01 07:07:14;;;;;;;1999.90;999.90;;;10.50;99.90;;;;;;5054459;28;20025;-74
2023/04/01 07:09:48;;;;;;;1999.90;999.90;;;10.50;99.90;;;;;;5054512;28;20035;-74
2023/04/01 07:12:37;;;;;;;1999.90;999.90;;;10.70;99.90;;;;;;5054299;28;20090;-75
2023/04/01 07:15:26;;;;;;;1999.90;999.90;;;10.70;99.90;;;;;;5054239;28;20400;-74
2023/04/01 07:17:56;;;;;;;1999.90;999.90;;;11.00;99.90;;;;;;5052926;28;20553;-74
2023/04/01 07:20:31;;;;;;;1999.90;999.90;;;11.10;99.90;;;;;;5052261;28;20029;-69
2023/04/01 07:23:00;;;;;;;1999.90;999.90;;;11.20;99.90;;;;;;5054012;28;20388;-75
2023/04/01 07:25:29;;;;;;;1999.90;999.90;;;11.20;99.90;;;;;;5054143;28;20037;-75
2023/04/01 07:28:04;;;;;;;1999.90;999.90;;;11.30;99.90;;;;;;5053859;28;20476;-75
2023/04/01 07:30:51;;;;;;;1999.90;999.90;;;11.70;99.90;;;;;;5054254;28;20541;-76
2023/04/01 07:33:28;;;;;;;1999.90;999.90;;;11.60;99.90;;;;;;5052804;28;20032;-74
2023/04/01 07:36:08;;;;;;;1999.90;999.90;;;11.30;99.90;;;;;;5053225;28;20032;-74
2023/04/01 07:39:03;;;;;;;1999.90;999.90;;;11.00;99.90;;;;;;5050812;28;20040;-74
2023/04/01 07:41:42;;;;;;;1999.90;999.90;;;10.90;99.90;;;;;;5053593;28;20040;-75
2023/04/01 07:44:25;;;;;;;1999.90;999.90;;;10.80;99.90;;;;;;5053610;28;20028;-74
2023/04/01 07:47:23;;;;;;;1999.90;999.90;;;10.90;99.90;;;;;;5052951;28;20029;-69
2023/04/01 07:50:26;;;;;;;1999.90;999.90;;;11.30;99.90;;;;;;5053247;28;20049;-74
2023/04/01 07:53:00;;;;;;;1999.90;999.90;;;11.60;99.90;;;;;;5053756;28;20499;-69
2023/04/01 07:55:52;;;;;;;1999.90;999.90;;;12.70;99.90;;;;;;5053670;28;20301;-75
2023/04/01 07:58:24;;;;;;;1999.90;999.90;;;14.40;99.90;;;;;;5053450;28;20020;-76
2023/04/01 08:00:58;;;;;;;1999.90;999.90;;;14.00;99.90;;;;;;5053761;28;20542;-75
2023/04/01 08:04:02;;;;;;;1999.90;999.90;;;14.60;99.90;;;;;;5053179;28;20049;-69
2023/04/01 08:07:00;;;;;;;1999.90;999.90;;;15.70;99.90;;;;;;5053255;28;20021;-74
2023/04/01 08:09:50;;;;;;;1999.90;999.90;;;16.10;99.90;;;;;;5033848;28;20033;-75
2023/04/01 08:12:49;;;;;;;1999.90;999.90;;;17.20;99.90;;;;;;5053426;28;20025;-70
2023/04/01 08:15:33;;;;;;;1999.90;999.90;;;16.40;99.90;;;;;;5053254;28;20032;-69
2023/04/01 08:18:21;;;;;;;1999.90;999.90;;;16.10;99.90;;;;;;5052862;28;20079;-69
2023/04/01 08:20:52;;;;;;;1999.90;999.90;;;16.10;99.90;;;;;;5050072;28;20032;-74
2023/04/01 08:23:38;;;;;;;1999.90;999.90;;;16.80;99.90;;;;;;5052690;28;20028;-74
2023/04/01 08:26:19;;;;;;;1999.90;999.90;;;17.30;99.90;;;;;;5049035;28;20087;-75
2023/04/01 08:28:54;;;;;;;1999.90;999.90;;;17.80;99.90;;;;;;5052866;28;20036;-75
2023/04/01 08:31:25;;;;;;;1999.90;999.90;;;17.30;99.90;;;;;;5053305;28;20031;-74
2023/04/01 08:33:54;;;;;;;1999.90;999.90;;;15.20;99.90;;;;;;5052843;28;20442;-74
2023/04/01 08:36:37;;;;;;;1999.90;999.90;;;16.90;99.90;;;;;;5053163;28;20031;-74
2023/04/01 08:39:24;;;;;;;1999.90;999.90;;;16.40;99.90;;;;;;5052606;28;20028;-74
2023/04/01 08:41:55;;;;;;;1999.90;999.90;;;16.60;99.90;;;;;;5052615;28;20147;-74
2023/04/01 08:45:00;;;;;;;1999.90;999.90;;;14.70;99.90;;;;;;5052730;28;20166;-75
2023/04/01 08:47:52;;;;;;;1999.90;999.90;;;13.50;99.90;;;;;;5052147;28;20175;-74
2023/04/01 08:50:45;;;;;;;1999.90;999.90;;;12.40;99.90;;;;;;5052842;28;20531;-76
2023/04/01 08:53:28;;;;;;;1999.90;999.90;;;12.10;99.90;;;;;;5052552;28;20025;-74
2023/04/01 08:56:13;;;;;;;;;;;12.00;99.90;;;;;;5053100;28;20033;-74
2023/04/01 08:59:09;;;;;;;1999.90;999.90;;;12.90;99.90;;;;;;5052539;28;19944;-75
2023/04/01 09:01:44;;;;;;;1999.90;999.90;;;14.70;99.90;;;;;;5052726;28;20060;-75
2023/04/01 09:04:48;;;;;;;1999.90;999.90;;;17.10;99.90;;;;;;5052644;28;20029;-75
2023/04/01 09:07:43;;;;;;;1999.90;999.90;;;14.40;99.90;;;;;;5052507;28;20419;-75
2023/04/01 09:10:18;;;;;;;1999.90;999.90;;;12.50;99.90;;;;;;5043330;28;20381;-77
2023/04/01 09:12:51;;;;;;;1999.90;999.90;;;12.00;99.90;;;;;;5052634;28;20395;-77
2023/04/01 09:15:35;;;;;;;1999.90;999.90;;;11.50;99.90;;;;;;5052554;28;20029;-74
2023/04/01 09:18:33;;;;;;;1999.90;999.90;;;11.20;99.90;;;;;;5052191;28;20507;-69
2023/04/01 09:21:01;;;;;;;1999.90;999.90;;;11.50;99.90;;;;;;5047771;28;20049;-74
2023/04/01 09:23:39;;;;;;;1999.90;999.90;;;11.80;99.90;;;;;;5052104;28;20033;-74
2023/04/01 09:26:28;;;;;;;1999.90;999.90;;;13.40;99.90;;;;;;5052247;28;20083;-74
2023/04/01 09:29:26;;;;;;;1999.90;999.90;;;13.90;99.90;;;;;;5052186;28;20029;-75
2023/04/01 09:32:00;;;;;;;1999.90;999.90;;;14.20;99.90;;;;;;5052479;28;20025;-74
2023/04/01 09:34:50;;;;;;;1999.90;999.90;;;12.90;99.90;;;;;;5052533;28;20036;-69
2023/04/01 09:37:40;;;;;;;1999.90;999.90;;;12.50;99.90;;;;;;5052352;28;20028;-74
2023/04/01 09:40:17;;;;;;;1999.90;999.90;;;12.50;99.90;;;;;;5051974;28;20500;-74
2023/04/01 09:43:06;;;;;;;1999.90;999.90;;;12.80;99.90;;;;;;5051877;28;20071;-69
2023/04/01 09:45:43;;;;;;;1999.90;999.90;;;13.30;99.90;;;;;;5052130;28;20055;-70
2023/04/01 09:48:20;;;;;;;1999.90;999.90;;;13.50;99.90;;;;;;5051826;28;20061;-74
2023/04/01 09:50:54;;;;;;;1999.90;999.90;;;14.70;99.90;;;;;;5052091;28;20039;-75
2023/04/01 09:53:40;;;;;;;1999.90;999.90;;;15.30;99.90;;;;;;5052158;28;20025;-75
2023/04/01 09:56:40;;;;;;;1999.90;999.90;;;15.20;99.90;;;;;;5052085;28;20045;-74
2023/04/01 09:59:32;;;;;;;1999.90;999.90;;;14.90;99.90;;;;;;5053791;28;20122;-74
2023/04/01 10:02:33;;;;;;;1999.90;999.90;;;14.90;99.90;;;;;;5055580;28;20017;-75
2023/04/01 10:05:17;;;;;;;1999.90;999.90;;;16.80;99.90;;;;;;5055808;28;20024;-74
2023/04/01 10:08:02;;;;;;;1999.90;999.90;;;16.00;99.90;;;;;;5055539;28;20024;-75
2023/04/01 10:10:49;;;;;;;1999.90;999.90;;;15.80;99.90;;;;;;5055727;28;20033;-69
2023/04/01 10:13:24;;;;;;;1999.90;999.90;;;16.00;99.90;;;;;;5055414;28;20483;-76
2023/04/01 10:16:15;;;;;;;1999.90;999.90;;;15.80;99.90;;;;;;5055645;28;20032;-75
2023/04/01 10:19:18;;;;;;;1999.90;999.90;;;15.60;99.90;;;;;;5035477;28;21670;-69
2023/04/01 10:22:11;;;;;;;1999.90;999.90;;;15.30;99.90;;;;;;5055289;28;20021;-74
2023/04/01 10:25:04;;;;;;;1999.90;999.90;;;14.80;99.90;;;;;;5055497;28;20586;-75
2023/04/01 10:27:58;;;;;;;1999.90;999.90;;;15.70;99.90;;;;;;5055455;28;20078;-76
2023/04/01 10:30:56;;;;;;;1999.90;999.90;;;15.50;99.90;;;;;;5055385;28;20079;-75
2023/04/01 10:33:46;;;;;;;1999.90;999.90;;;15.20;99.90;;;;;;5055113;28;20108;-75
2023/04/01 10:36:40;;;;;;;1999.90;999.90;;;15.20;99.90;;;;;;5054989;28;20028;-75
2023/04/01 10:39:35;;;;;;;1999.90;999.90;;;14.20;99.90;;;;;;5055004;28;20033;-74
2023/04/01 10:42:16;;;;;;;1999.90;999.90;;;13.70;99.90;;;;;;5054620;28;20021;-74
2023/04/01 10:45:02;;;;;;;1999.90;999.90;;;13.30;99.90;;;;;;5054895;28;20055;-75
2023/04/01 10:47:37;;;;;;;1999.90;999.90;;;13.30;99.90;;;;;;5055114;28;20371;-75
2023/04/01 10:50:43;;;;;;;1999.90;999.90;;;13.20;99.90;;;;;;5053904;28;20056;-69
2023/04/01 10:53:35;;;;;;;1999.90;999.90;;;13.10;99.90;;;;;;5054852;28;20053;-74
2023/04/01 10:56:20;;;;;;;1999.90;999.90;;;13.20;99.90;;;;;;5054877;28;20025;-74
2023/04/01 10:59:17;;;;;;;1999.90;999.90;;;13.40;99.90;;;;;;5054696;28;20400;-75
2023/04/01 11:01:48;;;;;;;1999.90;999.90;;;13.80;99.90;;;;;;5054466;28;20477;-74
2023/04/01 11:04:44;;;;;;;1999.90;999.90;;;13.90;99.90;;;;;;5055057;28;20388;-75
2023/04/01 11:07:34;;;;;;;1999.90;999.90;;;13.40;99.90;;;;;;5054009;28;20118;-76
2023/04/01 11:10:18;;;;;;;1999.90;999.90;;;12.10;99.90;;;;;;5054085;28;20032;-68
2023/04/01 11:12:50;;;;;;;1999.90;999.90;;;10.40;99.90;;;;;;5054464;28;20025;-74
2023/04/01 11:15:57;;;;;;;1999.90;999.90;;;10.10;99.90;;;;;;5054396;28;20040;-68
2023/04/01 11:18:31;;;;;;;1999.90;999.90;;;10.10;99.90;;;;;;5053113;28;20029;-69
2023/04/01 11:21:03;;;;;;;1999.90;999.90;;;10.10;99.90;;;;;;5049959;28;20451;-74
2023/04/01 11:24:01;;;;;;;1999.90;999.90;;;10.30;99.90;;;;;;5034265;28;20021;-74
2023/04/01 11:27:04;;;;;;;1999.90;999.90;;;10.60;99.90;;;;;;5034374;28;20048;-75
2023/04/01 11:30:03;;;;;;;1999.90;999.90;;;11.20;99.90;;;;;;5034092;28;20055;-69
2023/04/01 11:32:34;;;;;;;1999.90;999.90;;;11.50;99.90;;;;;;5025434;28;20033;-75
2023/04/01 11:35:19;;;;;;;1999.90;999.90;;;12.10;99.90;;;;;;5033918;28;20079;-75
2023/04/01 11:38:00;;;;;;;1999.90;999.90;;;12.70;99.90;;;;;;5033777;28;20071;-75
2023/04/01 11:40:37;;;;;;;1999.90;999.90;;;13.10;99.90;;;;;;5034378;28;20022;-69
2023/04/01 11:43:09;;;;;;;1999.90;999.90;;;13.10;99.90;;;;;;5049607;28;20032;-75
2023/04/01 11:46:00;;;;;;;1999.90;999.90;;;13.80;99.90;;;;;;5053481;28;20021;-75
2023/04/01 11:48:56;;;;;;;1999.90;999.90;;;13.30;99.90;;;;;;5053263;28;20079;-75
2023/04/01 11:51:37;;;;;;;1999.90;999.90;;;13.10;99.90;;;;;;5053828;28;20025;-74
2023/04/01 11:54:17;;;;;;;1999.90;999.90;;;13.40;99.90;;;;;;5053549;28;20037;-75
2023/04/01 11:57:05;;;;;;;1999.90;999.90;;;13.40;99.90;;;;;;5053816;28;20392;-75
2023/04/01 11:59:57;;;;;;;1999.90;999.90;;;13.60;99.90;;;;;;5053229;28;20028;-69
2023/04/01 12:02:38;;;;;;;1999.90;999.90;;;13.30;99.90;;;;;;5053576;28;20031;-75
2023/04/01 12:05:41;;;;;;;1999.90;999.90;;;13.40;99.90;;;;;;5053638;28;20028;-76
2023/04/01 12:08:10;;;;;;;1999.90;999.90;;;13.70;99.90;;;;;;5053133;28;20032;-76
2023/04/01 12:10:54;;;;;;;1999.90;999.90;;;13.60;99.90;;;;;;5052036;28;20084;-69
2023/04/01 12:13:26;;;;;;;1999.90;999.90;;;13.30;99.90;;;;;;5050939;28;20404;-75
2023/04/01 12:16:19;;;;;;;1999.90;999.90;;;13.20;99.90;;;;;;5052791;28;20476;-74
2023/04/01 12:19:04;;;;;;;1999.90;999.90;;;12.90;99.90;;;;;;5037793;28;20048;-74
2023/04/01 12:21:38;;;;;;;1999.90;999.90;;;12.40;99.90;;;;;;5051107;28;20059;-69
2023/04/01 12:24:28;;;;;;;1999.90;999.90;;;12.00;99.90;;;;;;5053043;28;20052;-75
2023/04/01 12:27:27;;;;;;;1999.90;999.90;;;12.30;99.90;;;;;;5052914;28;20500;-74
2023/04/01 12:30:23;;;;;;;1999.90;999.90;;;12.40;99.90;;;;;;5053137;28;20025;-75
2023/04/01 12:33:01;;;;;;;1999.90;999.90;;;12.20;99.90;;;;;;5052876;28;20040;-76
2023/04/01 12:35:48;;;;;;;1999.90;999.90;;;11.80;99.90;;;;;;5053043;28;20493;-68
2023/04/01 12:38:45;;;;;;;1999.90;999.90;;;11.50;99.90;;;;;;5052741;28;20484;-74
2023/04/01 12:41:42;;;;;;;1999.90;999.90;;;11.60;99.90;;;;;;5053069;28;20043;-75
2023/04/01 12:44:23;;;;;;;1999.90;999.90;;;11.70;99.90;;;;;;5052479;28;20082;-74